createdAt,value
2023-04-02T00:00:36.951Z,101148.53
2023-04-02T00:03:08.725Z,101158.50
2023-04-02T00:05:50.715Z,101156.94
2023-04-02T00:08:38.970Z,101161.75
2023-04-02T00:11:06.923Z,101161.72
2023-04-02T00:13:39.514Z,101171.00
2023-04-02T00:16:11.422Z,101168.19
2023-04-02T00:18:45.389Z,101173.06
2023-04-02T00:21:16.390Z,101176.84
2023-04-02T00:23:44.227Z,101184.28
2023-04-02T00:26:24.633Z,101178.69
2023-04-02T00:28:52.386Z,101183.84
2023-04-02T00:31:20.557Z,101185.91
2023-04-02T00:33:49.481Z,101195.28
2023-04-02T00:36:20.202Z,101201.19
2023-04-02T00:38:48.702Z,101202.41
2023-04-02T00:41:22.531Z,101204.16
2023-04-02T00:43:50.847Z,101202.09
2023-04-02T00:46:25.226Z,101209.97
2023-04-02T00:49:38.184Z,101217.75
2023-04-02T00:52:13.497Z,101224.16
2023-04-02T00:54:48.344Z,101213.75
2023-04-02T00:57:25.644Z,101227.19
2023-04-02T01:00:23.821Z,101232.59
2023-04-02T01:03:13.135Z,101231.91
2023-04-02T01:05:42.524Z,101230.31
2023-04-02T01:08:31.337Z,101247.22
2023-04-02T01:11:04.258Z,101235.88
2023-04-02T01:13:54.600Z,101245.81
2023-04-02T01:16:46.240Z,101242.91
2023-04-02T01:19:22.289Z,101266.63
2023-04-02T01:22:04.028Z,101267.44
2023-04-02T01:24:34.141Z,101263.47
2023-04-02T01:27:04.130Z,101262.81
2023-04-02T01:29:34.692Z,101263.38
2023-04-02T01:32:06.736Z,101283.34
2023-04-02T01:34:36.343Z,101283.53
2023-04-02T01:37:16.938Z,101282.38
2023-04-02T01:40:08.360Z,101283.19
2023-04-02T01:42:41.641Z,101286.75
2023-04-02T01:45:15.224Z,101286.88
2023-04-02T01:47:43.294Z,101293.75
2023-04-02T01:50:38.624Z,101300.75
2023-04-02T01:53:11.978Z,101299.53
2023-04-02T01:55:38.689Z,101302.94
2023-04-02T01:58:06.194Z,101307.41
2023-04-02T02:00:36.852Z,101313.38
2023-04-02T02:03:06.267Z,101309.16
2023-04-02T02:05:33.480Z,101316.06
2023-04-02T02:08:01.343Z,101317.56
2023-04-02T02:10:35.409Z,101316.19
2023-04-02T02:13:02.272Z,101329.94
2023-04-02T02:15:33.679Z,101331.25
2023-04-02T02:18:04.393Z,101336.06
2023-04-02T02:20:32.563Z,101333.38
2023-04-02T02:23:00.285Z,101335.19
2023-04-02T02:25:36.172Z,101335.84
2023-04-02T02:28:09.763Z,101346.53
2023-04-02T02:30:47.716Z,101341.22
2023-04-02T02:33:27.199Z,101346.25
2023-04-02T02:36:17.101Z,101357.63
2023-04-02T02:38:57.964Z,101359.97
2023-04-02T02:41:39.928Z,101371.50
2023-04-02T02:44:19.538Z,101361.72
2023-04-02T02:46:57.014Z,101374.81
2023-04-02T02:49:49.973Z,101377.31
2023-04-02T02:52:24.837Z,101380.00
2023-04-02T02:55:15.852Z,101380.84
2023-04-02T02:58:37.395Z,101390.97
2023-04-02T03:01:16.607Z,101401.47
2023-04-02T03:03:45.568Z,101404.91
2023-04-02T03:06:16.872Z,101399.81
2023-04-02T03:09:12.380Z,101411.69
2023-04-02T03:12:06.432Z,101411.81
2023-04-02T03:14:38.984Z,101413.69
2023-04-02T03:17:18.604Z,101420.41
2023-04-02T03:19:53.103Z,101423.97
2023-04-02T03:22:41.141Z,101420.44
2023-04-02T03:25:21.927Z,101431.59
2023-04-02T03:27:53.910Z,101433.34
2023-04-02T03:30:44.541Z,101446.31
2023-04-02T03:33:19.146Z,101446.31
2023-04-02T03:35:48.902Z,101460.97
2023-04-02T03:38:27.539Z,101456.34
2023-04-02T03:41:01.222Z,101462.63
2023-04-02T03:43:46.566Z,101473.66
2023-04-02T03:46:39.440Z,101475.38
2023-04-02T03:49:31.951Z,101481.50
2023-04-02T03:52:06.767Z,101474.75
2023-04-02T03:54:36.453Z,101485.91
2023-04-02T03:57:03.724Z,101497.03
2023-04-02T03:59:45.339Z,101499.69
2023-04-02T04:02:34.745Z,101499.41
2023-04-02T04:05:05.189Z,101512.53
2023-04-02T04:07:38.938Z,101518.50
2023-04-02T04:10:08.418Z,101514.34
2023-04-02T04:12:40.825Z,101524.72
2023-04-02T04:15:20.901Z,101530.63
2023-04-02T04:18:19.163Z,101537.50
2023-04-02T04:20:56.641Z,101534.13
2023-04-02T04:23:38.733Z,101541.91
2023-04-02T04:26:19.563Z,101537.53
2023-04-02T04:29:19.074Z,101546.16
2023-04-02T04:31:55.276Z,101548.72
2023-04-02T04:34:36.284Z,101553.09
2023-04-02T04:37:07.935Z,101562.50
2023-04-02T04:40:01.117Z,101559.84
2023-04-02T04:42:33.706Z,101571.94
2023-04-02T04:45:09.802Z,101573.72
2023-04-02T04:47:43.163Z,101568.59
2023-04-02T04:50:28.726Z,101582.28
2023-04-02T04:52:55.990Z,101583.13
2023-04-02T04:55:35.211Z,101583.94
2023-04-02T04:58:12.577Z,101593.47
2023-04-02T05:00:56.055Z,101593.28
2023-04-02T05:03:46.622Z,101594.34
2023-04-02T05:06:26.027Z,101602.78
2023-04-02T05:08:57.052Z,101613.22
2023-04-02T05:11:45.700Z,101610.63
2023-04-02T05:14:38.759Z,101622.81
2023-04-02T05:17:31.668Z,101618.34
2023-04-02T05:20:26.954Z,101629.59
2023-04-02T05:23:25.540Z,101636.44
2023-04-02T05:25:57.951Z,101640.97
2023-04-02T05:29:02.715Z,101644.94
2023-04-02T05:31:54.963Z,101657.03
2023-04-02T05:34:27.590Z,101657.16
2023-04-02T05:36:55.715Z,101654.56
2023-04-02T05:39:25.955Z,101666.47
2023-04-02T05:42:14.555Z,101667.97
2023-04-02T05:45:23.934Z,101666.47
2023-04-02T05:47:59.936Z,101665.91
2023-04-02T05:50:43.077Z,101667.09
2023-04-02T05:53:25.621Z,101675.84
2023-04-02T05:56:05.100Z,101671.50
2023-04-02T05:58:44.056Z,101680.22
2023-04-02T06:01:30.219Z,101680.84
2023-04-02T06:04:26.898Z,101685.19
2023-04-02T06:07:35.965Z,101689.38
2023-04-02T06:10:11.973Z,101694.31
2023-04-02T06:13:05.086Z,101699.53
2023-04-02T06:15:38.186Z,101709.22
2023-04-02T06:18:30.295Z,101709.19
2023-04-02T06:20:57.680Z,101705.31
2023-04-02T06:23:46.650Z,101716.22
2023-04-02T06:26:26.357Z,101718.06
2023-04-02T06:29:22.729Z,101727.41
2023-04-02T06:31:57.357Z,101725.03
2023-04-02T06:34:27.866Z,101728.66
2023-04-02T06:37:25.904Z,101731.06
2023-04-02T06:40:18.527Z,101733.88
2023-04-02T06:42:46.673Z,101741.03
2023-04-02T06:45:39.892Z,101753.44
2023-04-02T06:48:28.252Z,101752.72
2023-04-02T06:51:07.251Z,101778.16
2023-04-02T06:53:42.256Z,101767.59
2023-04-02T06:56:42.268Z,101776.81
2023-04-02T06:59:12.733Z,101760.72
2023-04-02T07:01:53.329Z,101803.72
2023-04-02T07:04:21.640Z,101786.47
2023-04-02T07:06:51.260Z,101781.44
2023-04-02T07:09:18.822Z,101778.50
2023-04-02T07:11:49.495Z,101794.38
2023-04-02T07:14:17.953Z,101797.34
2023-04-02T07:16:45.170Z,101802.34
2023-04-02T07:19:21.926Z,101806.88
2023-04-02T07:21:53.016Z,101805.09
2023-04-02T07:24:21.362Z,101802.19
2023-04-02T07:26:48.263Z,101802.69
2023-04-02T07:29:16.744Z,101816.03
2023-04-02T07:31:44.190Z,101814.91
2023-04-02T07:34:10.911Z,101823.00
2023-04-02T07:36:37.670Z,101819.94
2023-04-02T07:39:04.631Z,101836.69
2023-04-02T07:41:31.433Z,101828.19
2023-04-02T07:43:58.194Z,101828.25
2023-04-02T07:46:25.972Z,101827.22
2023-04-02T07:48:52.746Z,101831.00
2023-04-02T07:51:22.382Z,101839.53
2023-04-02T07:53:56.036Z,101836.19
2023-04-02T07:56:25.130Z,101847.00
2023-04-02T07:58:51.845Z,101861.72
2023-04-02T08:01:27.731Z,101864.50
2023-04-02T08:03:57.920Z,101865.69
2023-04-02T08:06:25.262Z,101866.94
2023-04-02T08:08:52.243Z,101876.47
2023-04-02T08:11:19.067Z,101872.59
2023-04-02T08:13:45.998Z,101897.13
2023-04-02T08:16:12.590Z,101900.91
2023-04-02T08:18:39.504Z,101893.06
2023-04-02T08:21:08.694Z,101897.38
2023-04-02T08:23:37.061Z,101893.75
2023-04-02T08:26:05.354Z,101906.00
2023-04-02T08:28:31.993Z,101904.06
2023-04-02T08:30:58.671Z,101910.56
2023-04-02T08:33:26.091Z,101909.13
2023-04-02T08:35:52.886Z,101898.41
2023-04-02T08:38:21.978Z,101894.22
2023-04-02T08:40:54.546Z,101919.22
2023-04-02T08:43:40.712Z,101907.03
2023-04-02T08:46:32.344Z,101907.72
2023-04-02T08:49:02.566Z,101916.38
2023-04-02T08:51:34.336Z,101921.28
2023-04-02T08:54:29.002Z,101910.63
2023-04-02T08:57:02.157Z,101927.22
2023-04-02T08:59:33.628Z,101933.88
2023-04-02T09:02:23.360Z,101930.38
2023-04-02T09:04:51.005Z,101938.47
2023-04-02T09:07:18.256Z,101951.16
2023-04-02T09:09:50.633Z,101957.38
2023-04-02T09:12:21.244Z,101956.59
2023-04-02T09:15:18.549Z,101963.44
2023-04-02T09:17:53.747Z,101957.09
2023-04-02T09:20:26.202Z,101954.66
2023-04-02T09:22:54.306Z,101974.84
2023-04-02T09:25:31.295Z,101975.78
2023-04-02T09:28:01.917Z,101978.94
2023-04-02T09:30:31.835Z,101968.72
2023-04-02T09:33:07.537Z,101988.69
2023-04-02T09:35:50.878Z,101988.63
2023-04-02T09:38:31.513Z,101989.53
2023-04-02T09:41:07.445Z,101989.28
2023-04-02T09:43:38.687Z,101989.28
2023-04-02T09:46:26.129Z,101998.66
2023-04-02T09:48:54.324Z,101998.41
2023-04-02T09:51:26.407Z,102015.41
2023-04-02T09:54:02.067Z,102014.84
2023-04-02T09:56:33.756Z,102015.22
2023-04-02T09:59:16.089Z,102015.22
2023-04-02T10:01:53.669Z,102013.69
2023-04-02T10:04:48.158Z,102014.47
2023-04-02T10:07:41.449Z,102014.06
2023-04-02T10:10:32.041Z,102027.88
2023-04-02T10:13:06.659Z,102026.97
2023-04-02T10:15:40.004Z,102031.47
2023-04-02T10:18:21.085Z,102027.94
2023-04-02T10:20:51.648Z,102041.63
2023-04-02T10:23:19.838Z,102046.84
2023-04-02T10:25:55.973Z,102038.97
2023-04-02T10:29:01.157Z,102054.94
2023-04-02T10:31:38.009Z,102054.31
2023-04-02T10:34:12.660Z,102065.53
2023-04-02T10:37:04.190Z,102073.09
2023-04-02T10:39:51.408Z,102080.91
2023-04-02T10:42:41.160Z,102073.31
2023-04-02T10:45:29.419Z,102090.44
2023-04-02T10:48:13.820Z,102096.63
2023-04-02T10:51:00.675Z,102092.09
2023-04-02T10:53:41.161Z,102110.13
2023-04-02T10:56:11.776Z,102111.94
2023-04-02T10:59:05.490Z,102111.03
2023-04-02T11:01:34.750Z,102122.47
2023-04-02T11:04:32.223Z,102121.22
2023-04-02T11:07:11.565Z,102112.34
2023-04-02T11:09:45.633Z,102119.78
2023-04-02T11:12:46.675Z,102131.91
2023-04-02T11:15:18.009Z,102124.03
2023-04-02T11:17:46.097Z,102125.88
2023-04-02T11:20:56.205Z,102116.63
2023-04-02T11:23:26.638Z,102112.16
2023-04-02T11:26:33.783Z,102141.25
2023-04-02T11:29:18.680Z,102128.66
2023-04-02T11:31:46.312Z,102134.53
2023-04-02T11:34:34.679Z,102128.41
2023-04-02T11:37:04.178Z,102141.56
2023-04-02T11:39:53.429Z,102142.84
2023-04-02T11:42:34.784Z,102155.94
2023-04-02T11:45:21.484Z,102147.19
2023-04-02T11:48:09.270Z,102154.34
2023-04-02T11:50:39.771Z,102155.09
2023-04-02T11:53:12.664Z,102153.69
2023-04-02T11:55:44.187Z,102162.59
2023-04-02T11:58:29.555Z,102169.72
2023-04-02T12:01:15.554Z,102179.53
2023-04-02T12:04:01.868Z,102173.69
2023-04-02T12:06:48.220Z,102177.00
2023-04-02T12:09:23.923Z,102174.28
2023-04-02T12:12:14.907Z,102189.81
2023-04-02T12:14:45.632Z,102191.25
2023-04-02T12:17:24.127Z,102183.13
2023-04-02T12:19:54.143Z,102195.47
2023-04-02T12:22:25.572Z,102214.19
2023-04-02T12:24:56.620Z,102205.19
2023-04-02T12:27:27.832Z,102206.94
2023-04-02T12:29:57.211Z,102214.34
2023-04-02T12:32:31.008Z,102221.63
2023-04-02T12:34:59.163Z,102213.41
2023-04-02T12:37:29.278Z,102211.88
2023-04-02T12:40:07.150Z,102218.66
2023-04-02T12:42:37.634Z,102211.38
2023-04-02T12:45:05.636Z,102213.88
2023-04-02T12:47:33.651Z,102212.56
2023-04-02T12:50:02.207Z,102215.50
2023-04-02T12:52:29.453Z,102213.75
2023-04-02T12:55:02.549Z,102212.34
2023-04-02T12:57:29.368Z,102206.66
2023-04-02T12:59:58.355Z,102211.47
2023-04-02T13:02:27.187Z,102228.47
2023-04-02T13:04:56.010Z,102217.00
2023-04-02T13:07:27.673Z,102228.28
2023-04-02T13:10:02.819Z,102225.97
2023-04-02T13:12:41.139Z,102223.53
2023-04-02T13:15:21.355Z,102238.19
2023-04-02T13:18:02.855Z,102234.00
2023-04-02T13:20:32.568Z,102241.84
2023-04-02T13:23:01.667Z,102245.81
2023-04-02T13:25:31.324Z,102246.22
2023-04-02T13:27:58.818Z,102242.34
2023-04-02T13:30:28.071Z,102253.13
2023-04-02T13:32:55.460Z,102249.31
2023-04-02T13:35:22.632Z,102247.03
2023-04-02T13:37:49.385Z,102229.31
2023-04-02T13:40:19.695Z,102238.13
2023-04-02T13:42:47.660Z,102252.69
2023-04-02T13:45:33.797Z,102253.47
2023-04-02T13:48:03.581Z,102253.44
2023-04-02T13:50:32.129Z,102257.56
2023-04-02T13:53:04.813Z,102236.81
2023-04-02T13:55:37.683Z,102256.34
2023-04-02T13:58:05.382Z,102268.81
2023-04-02T14:00:33.623Z,102262.66
2023-04-02T14:03:08.448Z,102270.91
2023-04-02T14:05:35.156Z,102262.78
2023-04-02T14:08:16.710Z,102262.81
2023-04-02T14:11:05.301Z,102262.22
2023-04-02T14:13:34.660Z,102271.16
2023-04-02T14:16:36.647Z,102280.19
2023-04-02T14:19:06.295Z,102273.56
2023-04-02T14:22:10.438Z,102280.41
2023-04-02T14:24:54.397Z,102290.13
2023-04-02T14:27:45.524Z,102303.53
2023-04-02T14:30:31.542Z,102287.22
2023-04-02T14:33:23.379Z,102294.88
2023-04-02T14:35:57.751Z,102305.03
2023-04-02T14:38:43.361Z,102295.69
2023-04-02T14:41:17.890Z,102298.03
2023-04-02T14:44:02.173Z,102311.69
2023-04-02T14:46:31.676Z,102316.28
2023-04-02T14:49:07.438Z,102318.22
2023-04-02T14:51:47.688Z,102317.09
2023-04-02T14:54:26.135Z,102331.63
2023-04-02T14:56:57.635Z,102324.63
2023-04-02T15:00:01.674Z,102349.59
2023-04-02T15:02:45.571Z,102328.06
2023-04-02T15:05:28.244Z,102335.19
2023-04-02T15:08:16.017Z,102344.88
2023-04-02T15:11:08.614Z,102339.19
2023-04-02T15:13:45.408Z,102344.66
2023-04-02T15:16:19.672Z,102346.28
2023-04-02T15:18:51.095Z,102334.25
2023-04-02T15:21:23.014Z,102340.19
2023-04-02T15:23:59.918Z,102342.19
2023-04-02T15:26:50.660Z,102333.69
2023-04-02T15:29:32.153Z,102354.56
2023-04-02T15:32:20.542Z,102351.59
2023-04-02T15:35:05.818Z,102353.72
2023-04-02T15:37:39.036Z,102356.66
2023-04-02T15:40:20.981Z,102363.13
2023-04-02T15:42:59.028Z,102364.34
2023-04-02T15:45:33.175Z,102367.03
2023-04-02T15:48:37.048Z,102373.91
2023-04-02T15:51:40.261Z,102371.09
2023-04-02T15:54:36.210Z,102375.53
2023-04-02T15:57:05.853Z,102376.00
2023-04-02T15:59:53.884Z,102374.94
2023-04-02T16:02:23.395Z,102381.47
2023-04-02T16:05:03.782Z,102375.19
2023-04-02T16:07:54.762Z,102382.03
2023-04-02T16:10:41.220Z,102386.66
2023-04-02T16:13:17.007Z,102390.28
2023-04-02T16:16:02.316Z,102384.03
2023-04-02T16:18:52.962Z,102396.25
2023-04-02T16:21:22.392Z,102395.88
2023-04-02T16:23:49.826Z,102405.19
2023-04-02T16:26:35.416Z,102410.72
2023-04-02T16:29:11.270Z,102413.16
2023-04-02T16:31:46.778Z,102435.19
2023-04-02T16:34:28.343Z,102431.00
2023-04-02T16:37:06.668Z,102437.09
2023-04-02T16:39:55.538Z,102426.69
2023-04-02T16:42:48.999Z,102428.06
2023-04-02T16:45:30.813Z,102436.84
2023-04-02T16:48:33.815Z,102431.88
2023-04-02T16:51:12.710Z,102448.19
2023-04-02T16:54:00.426Z,102461.41
2023-04-02T16:56:53.307Z,102457.78
2023-04-02T16:59:35.392Z,102458.56
2023-04-02T17:02:14.265Z,102464.41
2023-04-02T17:04:58.734Z,102479.38
2023-04-02T17:07:54.420Z,102487.31
2023-04-02T17:10:59.733Z,102481.97
2023-04-02T17:13:29.646Z,102488.09
2023-04-02T17:16:26.886Z,102491.72
2023-04-02T17:18:57.888Z,102488.28
2023-04-02T17:21:27.651Z,102497.69
2023-04-02T17:23:58.377Z,102501.88
2023-04-02T17:26:29.046Z,102521.13
2023-04-02T17:28:59.125Z,102520.28
2023-04-02T17:31:30.766Z,102518.56
2023-04-02T17:33:57.736Z,102521.28
2023-04-02T17:36:32.511Z,102533.41
2023-04-02T17:39:04.962Z,102534.28
2023-04-02T17:41:37.400Z,102531.63
2023-04-02T17:44:22.077Z,102547.28
2023-04-02T17:47:03.132Z,102544.66
2023-04-02T17:49:47.846Z,102554.22
2023-04-02T17:52:33.962Z,102551.59
2023-04-02T17:55:18.519Z,102555.09
2023-04-02T17:58:09.782Z,102562.00
2023-04-02T18:01:16.608Z,102565.47
2023-04-02T18:04:16.846Z,102567.22
2023-04-02T18:07:07.093Z,102570.66
2023-04-02T18:10:02.381Z,102574.13
2023-04-02T18:13:27.874Z,102579.31
2023-04-02T18:16:27.150Z,102581.09
2023-04-02T18:19:03.605Z,102592.34
2023-04-02T18:21:39.497Z,102593.19
2023-04-02T18:24:20.982Z,102593.19
2023-04-02T18:27:09.077Z,102605.19
2023-04-02T18:29:56.747Z,102613.91
2023-04-02T18:33:00.236Z,102613.91
2023-04-02T18:35:34.974Z,102621.66
2023-04-02T18:38:41.448Z,102618.31
2023-04-02T18:41:14.063Z,102631.25
2023-04-02T18:43:57.489Z,102641.59
2023-04-02T18:46:50.346Z,102635.56
2023-04-02T18:49:23.563Z,102640.66
2023-04-02T18:51:54.937Z,102635.38
2023-04-02T18:54:32.220Z,102644.00
2023-04-02T18:57:01.914Z,102639.81
2023-04-02T18:59:33.402Z,102645.81
2023-04-02T19:02:27.657Z,102645.09
2023-04-02T19:05:19.413Z,102650.22
2023-04-02T19:07:50.571Z,102657.97
2023-04-02T19:10:33.104Z,102662.22
2023-04-02T19:12:59.847Z,102658.66
2023-04-02T19:15:44.172Z,102666.53
2023-04-02T19:18:24.359Z,102669.09
2023-04-02T19:20:57.861Z,102668.22
2023-04-02T19:23:24.446Z,102672.66
2023-04-02T19:25:57.762Z,102683.53
2023-04-02T19:28:39.620Z,102684.44
2023-04-02T19:31:24.631Z,102687.81
2023-04-02T19:33:56.884Z,102695.47
2023-04-02T19:36:45.856Z,102692.94
2023-04-02T19:39:46.651Z,102701.53
2023-04-02T19:42:26.575Z,102686.78
2023-04-02T19:44:53.855Z,102696.31
2023-04-02T19:47:21.366Z,102697.03
2023-04-02T19:49:48.412Z,102696.00
2023-04-02T19:52:15.011Z,102704.06
2023-04-02T19:54:41.897Z,102711.66
2023-04-02T19:57:14.631Z,102709.47
2023-04-02T19:59:41.490Z,102714.44
2023-04-02T20:02:10.420Z,102710.94
2023-04-02T20:04:37.497Z,102708.19
2023-04-02T20:07:04.125Z,102721.84
2023-04-02T20:09:30.967Z,102717.03
2023-04-02T20:11:57.694Z,102727.22
2023-04-02T20:14:24.381Z,102720.41
2023-04-02T20:16:51.064Z,102722.16
2023-04-02T20:19:17.746Z,102725.34
2023-04-02T20:21:44.398Z,102730.56
2023-04-02T20:24:11.017Z,102727.03
2023-04-02T20:26:37.640Z,102734.06
2023-04-02T20:29:04.634Z,102741.78
2023-04-02T20:31:31.470Z,102746.88
2023-04-02T20:34:00.076Z,102745.09
2023-04-02T20:36:26.915Z,102745.16
2023-04-02T20:38:53.774Z,102750.41
2023-04-02T20:41:21.840Z,102752.75
2023-04-02T20:43:49.868Z,102758.97
2023-04-02T20:46:17.225Z,102756.28
2023-04-02T20:48:44.584Z,102761.59
2023-04-02T20:51:14.317Z,102768.38
2023-04-02T20:53:41.367Z,102771.06
2023-04-02T20:56:13.734Z,102774.22
2023-04-02T20:58:41.510Z,102777.13
2023-04-02T21:01:20.431Z,102778.69
2023-04-02T21:03:52.254Z,102783.66
2023-04-02T21:06:27.519Z,102783.56
2023-04-02T21:08:54.249Z,102781.59
2023-04-02T21:11:31.194Z,102780.63
2023-04-02T21:17:40.557Z,102789.22
2023-04-02T21:20:26.398Z,102798.66
2023-04-02T21:23:21.790Z,102803.78
2023-04-02T21:25:58.539Z,102803.59
2023-04-02T21:28:28.378Z,102807.94
2023-04-02T21:31:09.070Z,102791.59
2023-04-02T21:33:51.082Z,102793.91
2023-04-02T21:36:20.634Z,102792.19
2023-04-02T21:38:58.100Z,102800.75
2023-04-02T21:41:33.823Z,102805.88
2023-04-02T21:44:07.128Z,102806.41
2023-04-02T21:46:39.473Z,102800.34
2023-04-02T21:49:11.711Z,102800.38
2023-04-02T21:51:48.496Z,102808.75
2023-04-02T21:54:18.538Z,102818.19
2023-04-02T21:56:49.458Z,102812.75
2023-04-02T21:59:40.317Z,102816.41
2023-04-02T22:02:18.456Z,102816.63
2023-04-02T22:04:55.391Z,102823.72
2023-04-02T22:07:38.753Z,102848.81
2023-04-02T22:10:11.448Z,102830.56
2023-04-02T22:12:57.655Z,102827.59
2023-04-02T22:15:24.472Z,102838.97
2023-04-02T22:18:00.359Z,102844.31
2023-04-02T22:20:33.202Z,102846.50
2023-04-02T22:23:02.025Z,102842.94
2023-04-02T22:25:28.678Z,102840.34
2023-04-02T22:27:58.457Z,102837.19
2023-04-02T22:30:27.384Z,102843.88
2023-04-02T22:32:54.179Z,102839.88
2023-04-02T22:35:20.931Z,102846.53
2023-04-02T22:37:51.092Z,102841.59
2023-04-02T22:40:22.854Z,102845.16
2023-04-02T22:42:49.597Z,102848.81
2023-04-02T22:45:18.209Z,102857.75
2023-04-02T22:47:44.967Z,102855.66
2023-04-02T22:50:11.573Z,102860.09
2023-04-02T22:52:38.266Z,102857.41
2023-04-02T22:55:15.010Z,102860.56
2023-04-02T22:57:42.751Z,102870.91
2023-04-02T23:00:15.576Z,102870.03
2023-04-02T23:02:46.552Z,102875.03
2023-04-02T23:05:13.325Z,102872.03
2023-04-02T23:07:43.094Z,102883.69
2023-04-02T23:10:12.220Z,102889.91
2023-04-02T23:12:38.848Z,102896.31
2023-04-02T23:15:06.191Z,102892.63
2023-04-02T23:17:36.028Z,102902.38
2023-04-02T23:20:06.996Z,102899.44
2023-04-02T23:22:36.785Z,102898.75
2023-04-02T23:25:06.782Z,102903.16
2023-04-02T23:27:40.264Z,102899.03
2023-04-02T23:30:11.120Z,102910.81
2023-04-02T23:32:40.643Z,102909.28
2023-04-02T23:35:07.583Z,102909.31
2023-04-02T23:37:34.375Z,102900.69
2023-04-02T23:40:06.218Z,102903.91
2023-04-02T23:42:32.985Z,102907.84
2023-04-02T23:45:02.548Z,102921.31
2023-04-02T23:47:29.409Z,102917.22
2023-04-02T23:49:56.340Z,102913.47
2023-04-02T23:52:29.509Z,102916.19
2023-04-02T23:54:56.205Z,102919.31
2023-04-02T23:57:22.923Z,102925.28
2023-04-02T23:59:52.309Z,102922.72
